createdAt,value
2023-01-23T00:01:34.078Z,26.52
2023-01-23T00:05:35.540Z,25.83
2023-01-23T00:09:37.073Z,26.95
2023-01-23T00:13:38.621Z,27.98
2023-01-23T00:17:42.866Z,21.90
2023-01-23T00:21:44.414Z,28.67
2023-01-23T00:25:45.816Z,25.13
2023-01-23T00:29:47.557Z,25.50
2023-01-23T00:33:52.711Z,29.15
2023-01-23T00:37:54.309Z,21.92
2023-01-23T00:41:55.923Z,26.58
2023-01-23T00:45:57.586Z,29.13
2023-01-23T00:49:59.264Z,28.75
2023-01-23T00:54:01.555Z,33.65
2023-01-23T00:58:03.026Z,24.60
2023-01-23T01:02:04.485Z,26.92
2023-01-23T01:06:06.031Z,28.98
2023-01-23T01:10:07.966Z,32.13
2023-01-23T01:14:10.075Z,22.30
2023-01-23T01:18:11.545Z,24.17
2023-01-23T01:22:12.981Z,25.27
2023-01-23T01:26:14.511Z,28.30
2023-01-23T01:30:18.448Z,29.20
2023-01-23T01:34:22.149Z,28.33
2023-01-23T01:38:24.946Z,24.95
2023-01-23T01:42:28.377Z,25.40
2023-01-23T01:46:30.930Z,30.67
2023-01-23T01:50:32.454Z,32.03
2023-01-23T01:54:43.972Z,27.05
2023-01-23T01:58:49.119Z,28.00
2023-01-23T02:02:58.812Z,28.65
2023-01-23T02:07:05.262Z,26.67
2023-01-23T02:11:07.465Z,27.73
2023-01-23T02:15:09.211Z,29.55
2023-01-23T02:19:34.824Z,29.65
2023-01-23T02:23:36.435Z,42.17
2023-01-23T02:27:37.916Z,31.13
2023-01-23T02:31:42.731Z,30.55
2023-01-23T02:35:44.330Z,30.35
2023-01-23T02:39:45.776Z,27.10
2023-01-23T02:43:50.673Z,33.55
2023-01-23T02:47:52.094Z,27.75
2023-01-23T02:51:55.172Z,35.08
2023-01-23T02:55:58.648Z,30.23
2023-01-23T03:00:20.669Z,30.63
2023-01-23T03:04:22.444Z,30.70
2023-01-23T03:08:23.913Z,32.83
2023-01-23T03:12:25.371Z,28.40
2023-01-23T03:16:28.566Z,36.33
2023-01-23T03:20:30.101Z,34.05
2023-01-23T03:24:34.197Z,36.33
2023-01-23T03:28:53.929Z,26.88
2023-01-23T03:32:55.369Z,30.55
2023-01-23T03:36:57.175Z,30.13
2023-01-23T03:41:17.073Z,31.85
2023-01-23T03:45:18.515Z,32.88
2023-01-23T03:49:20.142Z,30.10
2023-01-23T03:53:21.587Z,35.38
2023-01-23T03:57:23.043Z,35.17
2023-01-23T04:01:25.350Z,39.35
2023-01-23T04:05:26.825Z,39.30
2023-01-23T04:09:28.285Z,36.67
2023-01-23T04:13:30.105Z,38.28
2023-01-23T04:17:31.616Z,34.85
2023-01-23T04:21:33.093Z,32.70
2023-01-23T04:25:34.541Z,31.38
2023-01-23T04:29:36.025Z,30.73
2023-01-23T04:33:37.484Z,31.70
2023-01-23T04:37:39.002Z,33.60
2023-01-23T04:41:40.440Z,32.38
2023-01-23T04:45:42.625Z,30.95
2023-01-23T04:49:44.058Z,32.42
2023-01-23T04:53:45.462Z,35.38
2023-01-23T04:57:46.874Z,38.08
2023-01-23T05:01:48.399Z,32.17
2023-01-23T05:05:49.870Z,30.23
2023-01-23T05:09:51.322Z,38.05
2023-01-23T05:13:52.831Z,38.15
2023-01-23T05:17:54.283Z,35.75
2023-01-23T05:21:55.705Z,29.45
2023-01-23T05:25:57.162Z,37.58
2023-01-23T05:29:58.650Z,33.00
2023-01-23T05:34:00.131Z,36.30
2023-01-23T05:38:01.638Z,41.95
2023-01-23T05:42:03.168Z,34.25
2023-01-23T05:46:04.855Z,30.88
2023-01-23T05:50:08.028Z,34.75
2023-01-23T05:54:10.453Z,35.15
2023-01-23T05:58:14.425Z,24.30
2023-01-23T06:02:17.349Z,37.13
2023-01-23T06:06:18.809Z,31.58
2023-01-23T06:10:20.467Z,36.40
2023-01-23T06:14:22.071Z,33.95
2023-01-23T06:18:23.657Z,36.25
2023-01-23T06:22:25.127Z,35.25
2023-01-23T06:26:26.856Z,34.95
2023-01-23T06:30:28.626Z,31.50
2023-01-23T06:34:30.142Z,29.38
2023-01-23T06:38:32.267Z,33.38
2023-01-23T06:42:33.758Z,36.28
2023-01-23T06:46:35.278Z,34.25
2023-01-23T06:50:39.751Z,36.00
2023-01-23T06:54:41.294Z,36.88
2023-01-23T06:58:45.306Z,34.45
2023-01-23T07:02:46.841Z,35.45
2023-01-23T07:06:48.347Z,30.92
2023-01-23T07:10:49.875Z,32.78
2023-01-23T07:14:51.311Z,35.80
2023-01-23T07:18:53.924Z,23.15
2023-01-23T07:22:56.135Z,30.50
2023-01-23T07:26:57.588Z,27.83
2023-01-23T07:30:59.565Z,28.38
2023-01-23T07:35:01.114Z,30.65
2023-01-23T07:39:02.703Z,30.02
2023-01-23T07:43:04.489Z,30.25
2023-01-23T07:47:05.888Z,29.55
2023-01-23T07:51:07.542Z,30.48
2023-01-23T07:55:09.406Z,33.00
2023-01-23T07:59:12.862Z,32.25
2023-01-23T08:03:14.376Z,30.52
2023-01-23T08:07:15.807Z,32.47
2023-01-23T08:11:17.244Z,30.08
2023-01-23T08:15:18.644Z,30.30
2023-01-23T08:19:20.166Z,31.60
2023-01-23T08:23:25.756Z,29.58
2023-01-23T08:27:27.197Z,30.92
2023-01-23T08:31:28.857Z,35.50
2023-01-23T08:35:30.564Z,37.53
2023-01-23T08:39:32.189Z,32.78
2023-01-23T08:43:33.649Z,33.50
2023-01-23T08:47:36.440Z,32.65
2023-01-23T08:51:38.496Z,31.98
2023-01-23T08:55:40.634Z,28.63
2023-01-23T08:59:42.605Z,34.88
2023-01-23T09:03:44.363Z,29.98
2023-01-23T09:07:46.933Z,34.83
2023-01-23T09:11:48.379Z,35.20
2023-01-23T09:15:50.037Z,35.72
2023-01-23T09:19:51.541Z,36.58
2023-01-23T09:23:52.982Z,33.03
2023-01-23T09:27:54.413Z,33.53
2023-01-23T09:31:55.910Z,34.67
2023-01-23T09:35:57.782Z,34.45
2023-01-23T09:40:00.515Z,37.78
2023-01-23T09:44:07.531Z,38.22
2023-01-23T09:48:22.643Z,36.05
2023-01-23T09:52:54.850Z,30.75
2023-01-23T09:56:59.454Z,29.63
2023-01-23T10:01:00.976Z,32.60
2023-01-23T10:05:02.981Z,31.88
2023-01-23T10:09:26.288Z,31.23
2023-01-23T10:13:33.748Z,30.63
2023-01-23T10:17:48.457Z,34.15
2023-01-23T10:21:59.719Z,33.33
2023-01-23T10:26:03.487Z,29.40
2023-01-23T10:30:08.055Z,34.17
2023-01-23T10:34:09.451Z,32.28
2023-01-23T10:38:30.921Z,34.63
2023-01-23T10:42:32.369Z,36.28
2023-01-23T10:46:39.431Z,29.88
2023-01-23T10:50:41.563Z,28.42
2023-01-23T10:54:46.896Z,34.38
2023-01-23T10:58:49.284Z,29.80
2023-01-23T11:02:50.847Z,35.65
2023-01-23T11:07:16.449Z,30.60
2023-01-23T11:11:19.535Z,29.80
2023-01-23T11:15:32.365Z,31.67
2023-01-23T11:19:36.835Z,35.47
2023-01-23T11:23:38.329Z,32.92
2023-01-23T11:27:39.830Z,29.52
2023-01-23T11:31:42.096Z,31.27
2023-01-23T11:36:29.938Z,28.60
2023-01-23T11:40:31.515Z,33.10
2023-01-23T11:44:45.014Z,34.25
2023-01-23T11:49:08.298Z,27.70
2023-01-23T11:53:42.032Z,25.60
2023-01-23T11:58:14.429Z,35.90
2023-01-23T12:02:41.745Z,32.85
2023-01-23T12:06:50.402Z,35.03
2023-01-23T12:11:18.002Z,26.80
2023-01-23T12:15:42.935Z,32.10
2023-01-23T12:20:12.006Z,28.33
2023-01-23T12:24:30.855Z,28.90
2023-01-23T12:29:09.407Z,30.58
2023-01-23T12:33:38.376Z,29.52
2023-01-23T12:37:58.020Z,25.23
2023-01-23T12:42:03.943Z,31.33
2023-01-23T12:46:22.251Z,25.27
2023-01-23T12:50:40.680Z,23.63
2023-01-23T12:54:55.823Z,29.50
2023-01-23T12:59:29.743Z,22.75
2023-01-23T13:03:44.887Z,22.27
2023-01-23T13:08:07.279Z,20.67
2023-01-23T13:12:21.681Z,21.80
2023-01-23T13:16:31.062Z,19.85
2023-01-23T13:21:11.014Z,21.00
2023-01-23T13:25:18.672Z,20.88
2023-01-23T13:29:58.816Z,19.00
2023-01-23T13:34:20.919Z,19.83
2023-01-23T13:38:22.298Z,20.08
2023-01-23T13:42:26.755Z,17.95
2023-01-23T14:22:11.896Z,18.33
2023-01-23T14:26:18.056Z,18.13
2023-01-23T14:30:26.678Z,19.20
2023-01-23T14:34:28.571Z,19.80
2023-01-23T14:38:34.323Z,17.15
2023-01-23T14:42:35.880Z,19.13
2023-01-23T14:46:41.494Z,23.02
2023-01-23T14:50:43.134Z,17.20
2023-01-23T14:54:53.366Z,18.77
2023-01-23T14:58:58.711Z,17.90
2023-01-23T15:03:00.358Z,15.68
2023-01-23T15:07:02.927Z,17.38
2023-01-23T15:11:06.576Z,16.38
2023-01-23T15:15:18.421Z,16.63
2023-01-23T15:19:24.792Z,13.07
2023-01-23T15:23:32.051Z,16.90
2023-01-23T15:27:35.673Z,17.23
2023-01-23T15:31:39.948Z,18.10
2023-01-23T15:35:41.563Z,15.55
2023-01-23T15:39:46.152Z,15.10
2023-01-23T15:43:47.627Z,15.82
2023-01-23T15:47:49.070Z,20.65
2023-01-23T15:51:51.180Z,21.27
2023-01-23T15:55:52.772Z,17.00
2023-01-23T15:59:54.265Z,18.17
2023-01-23T16:03:55.733Z,13.15
2023-01-23T16:08:00.942Z,18.10
2023-01-23T16:12:03.594Z,14.20
2023-01-23T16:16:20.115Z,15.43
2023-01-23T16:20:26.619Z,14.52
2023-01-23T16:24:29.430Z,14.20
2023-01-23T16:28:32.413Z,14.52
2023-01-23T16:32:34.137Z,13.05
2023-01-23T16:36:35.656Z,13.77
2023-01-23T16:40:37.679Z,20.40
2023-01-23T16:44:39.172Z,18.08
2023-01-23T16:48:40.877Z,14.30
2023-01-23T16:52:50.673Z,17.30
2023-01-23T16:56:53.508Z,22.05
2023-01-23T17:01:01.726Z,19.77
2023-01-23T17:05:03.241Z,15.32
2023-01-23T17:09:04.709Z,18.30
2023-01-23T17:13:06.284Z,17.83
2023-01-23T17:17:14.123Z,15.27
2023-01-23T17:21:21.203Z,21.40
2023-01-23T17:25:26.721Z,16.40
2023-01-23T17:29:28.350Z,18.38
2023-01-23T17:33:31.800Z,13.15
2023-01-23T17:37:34.304Z,18.08
2023-01-23T17:41:35.743Z,14.93
2023-01-23T17:45:37.728Z,18.83
2023-01-23T17:49:40.267Z,16.38
2023-01-23T17:53:42.328Z,19.63
2023-01-23T17:57:44.535Z,18.42
2023-01-23T18:01:47.626Z,19.02
2023-01-23T18:05:49.223Z,19.20
2023-01-23T18:09:51.105Z,21.52
2023-01-23T18:14:15.214Z,18.42
2023-01-23T18:18:37.463Z,18.13
2023-01-23T18:22:39.224Z,20.67
2023-01-23T18:26:49.048Z,20.45
2023-01-23T18:31:03.560Z,23.52
2023-01-23T18:35:11.194Z,18.38
2023-01-23T18:39:24.857Z,16.15
2023-01-23T18:43:38.522Z,19.75
2023-01-23T18:47:40.285Z,21.33
2023-01-23T18:51:41.793Z,21.55
2023-01-23T18:55:55.660Z,17.85
2023-01-23T19:00:12.460Z,16.45
2023-01-23T19:04:15.709Z,20.45
2023-01-23T19:08:28.040Z,19.40
2023-01-23T19:13:02.803Z,22.25
2023-01-23T19:17:29.578Z,20.13
2023-01-23T19:21:32.033Z,21.00
2023-01-23T19:25:33.910Z,23.45
2023-01-23T19:29:35.512Z,22.08
2023-01-23T19:33:37.016Z,14.13
2023-01-23T19:37:40.374Z,18.92
2023-01-23T19:41:44.328Z,17.60
2023-01-23T19:45:46.434Z,22.58
2023-01-23T19:49:47.970Z,16.65
2023-01-23T19:53:49.479Z,18.65
2023-01-23T19:57:51.009Z,15.45
2023-01-23T20:01:53.470Z,21.20
2023-01-23T20:05:55.697Z,17.98
2023-01-23T20:09:57.275Z,17.60
2023-01-23T20:13:58.778Z,17.65
2023-01-23T20:18:00.292Z,20.48
2023-01-23T20:22:01.765Z,18.80
2023-01-23T20:26:03.238Z,14.30
2023-01-23T20:30:07.219Z,18.55
2023-01-23T20:34:08.678Z,14.95
2023-01-23T20:38:11.382Z,16.50
2023-01-23T20:42:12.817Z,16.85
2023-01-23T20:46:16.056Z,20.98
2023-01-23T20:50:17.704Z,15.68
2023-01-23T20:54:19.352Z,14.57
2023-01-23T20:58:39.396Z,17.08
2023-01-23T21:02:40.990Z,14.10
2023-01-23T21:06:42.498Z,15.63
2023-01-23T21:10:44.030Z,16.08
2023-01-23T21:14:45.494Z,13.70
2023-01-23T21:18:47.160Z,16.45
2023-01-23T21:22:48.733Z,15.45
2023-01-23T21:26:50.275Z,17.35
2023-01-23T21:30:51.805Z,13.10
2023-01-23T21:34:53.266Z,13.82
2023-01-23T21:38:55.211Z,17.13
2023-01-23T21:42:56.616Z,14.35
2023-01-23T21:46:58.065Z,15.57
2023-01-23T21:51:08.353Z,15.93
2023-01-23T21:55:09.819Z,14.88
2023-01-23T21:59:11.276Z,18.33
2023-01-23T22:03:12.738Z,13.00
2023-01-23T22:07:14.181Z,14.23
2023-01-23T22:11:15.645Z,14.93
2023-01-23T22:15:17.262Z,15.65
2023-01-23T22:19:24.534Z,14.75
2023-01-23T22:23:27.122Z,19.55
2023-01-23T22:27:28.976Z,15.68
2023-01-23T22:31:30.554Z,17.05
2023-01-23T22:35:32.105Z,12.73
2023-01-23T22:39:33.560Z,16.98
2023-01-23T22:43:35.005Z,16.85
2023-01-23T22:47:36.486Z,16.90
2023-01-23T22:51:38.013Z,17.92
2023-01-23T22:55:39.430Z,18.10
2023-01-23T22:59:40.921Z,16.08
2023-01-23T23:03:42.971Z,15.25
2023-01-23T23:07:44.488Z,19.52
2023-01-23T23:11:48.944Z,14.23
2023-01-23T23:15:50.426Z,17.95
2023-01-23T23:19:51.853Z,16.45
2023-01-23T23:23:59.691Z,21.42
2023-01-23T23:28:01.365Z,19.35
2023-01-23T23:32:03.015Z,18.05
2023-01-23T23:36:05.004Z,16.73
2023-01-23T23:40:07.055Z,15.90
2023-01-23T23:44:08.954Z,15.13
2023-01-23T23:48:10.479Z,18.35
2023-01-23T23:52:11.898Z,17.20
2023-01-23T23:56:20.207Z,16.08
